Naples, FL

12:21 PM EDT on August 04, 2015 (GMT -0400)
Naples Municipal | | Change Station
CLOSE
Current Station
Airport
Location: Naples,
Elevation: 10 ft
Nearby Weather Stations

Elev 10 ft 26.16 °N, 81.77 °W | Updated 28 minutes ago

Clear
Clear
91 °F
Feels Like 96 °F
N
8
Wind Variable Wind from East

Today
High -- | Low -- °F
--% Chance of Precip.
Yesterday
High -- | Low -- °F
Precip. -- in
6:54 AM 8:11 PM
Waning Gibbous, 76% visible
Pressure 30.07 in
Visibility 10.0 miles
Clouds Clear
Heat Index 96 °F
Dew Point 69 °F
Humidity 48%
Rainfall 0.00 in
Snow Depth Not available.
UV 13 out of 12
Pollen 3.00 out of 12
Air Quality Not available.
Flu Activity Not available.
METAR KAPF 041553Z 10007KT 10SM CLR 33/21 A3008 RMK AO2 SLP183 T03280206

More Conditions Fewer Conditions

Pressure 30.07 in
Visibility 10.0 miles
Clouds Clear
Heat Index 96 °F
Dew Point 69 °F
Humidity 48%
Rainfall 0.00 in
Snow Depth Not available.
UV 13 out of 12
Pollen 3.00 out of 12
Air Quality Not available.
Flu Activity Not available.
METAR KAPF 041553Z 10007KT 10SM CLR 33/21 A3008 RMK AO2 SLP183 T03280206

More Conditions Fewer Conditions

10-Day Weather Forecast

×

Almanac

Astronomy

Aug. 04, 2015 Rise Set
Actual Time
Civil Twilight
Nautical Twilight
Astronomical Twilight
Moon
Length of Visible Light
Length of Day
Tomorrow will be .
, % of the Moon is Illuminated

Today's Extremes

State Highs State Lows

Community

WunderPhotos

Upload Photos

1,843,915 photos uploaded!

WunderBlogs® & News

Nearby

Air Quality

  Air Quality AQ Index Pollutant
Not available.

Snow Depth

Station Depth Elevation

Earthquake Activity

City Distance Mag. Time & Date
Minimum magnitude displayed is 2.5.

Coastal Water Temperatures

Place Temperature

Stations

Nearby Weather Stations

Station Location Temp. Windchill Dew Point Humidity Wind Precip. Elev Updated Type